Time;durP1;ratioP1;P1;durP2;ratioP2;P2;SDS_P1;SDS_P2;PMS_P1;PMS_P2;Temp;Humidity;BMP_temperature;BMP_pressure;BME280_temperature;BME280_humidity;BME280_pressure;Samples;Min_cycle;Max_cycle;Signal;HPM_P1;HPM_P2
2021/03/04 00:00:42;;;;;;;8.43;5.40;;;12.10;1.00;;;;;;5100172;28;20491;-75
2021/03/04 00:03:09;;;;;;;8.37;5.13;;;12.10;1.00;;;;;;5093998;28;20464;-76
2021/03/04 00:05:37;;;;;;;12.30;6.30;;;12.10;1.00;;;;;;5101681;28;20477;-77
2021/03/04 00:08:05;;;;;;;11.47;5.37;;;12.10;1.00;;;;;;5110532;27;20563;-76
2021/03/04 00:10:32;;;;;;;10.30;4.93;;;12.10;1.00;;;;;;5096271;28;20477;-76
2021/03/04 00:13:00;;;;;;;8.37;4.97;;;11.90;1.00;;;;;;5095803;28;20448;-76
2021/03/04 00:15:29;;;;;;;10.37;6.43;;;12.00;1.00;;;;;;5087952;28;20462;-76
2021/03/04 00:17:57;;;;;;;13.20;6.50;;;11.90;1.00;;;;;;5098958;28;20457;-76
2021/03/04 00:20:27;;;;;;;9.27;4.70;;;12.00;1.00;;;;;;5086871;28;20474;-77
2021/03/04 00:22:54;;;;;;;7.40;5.33;;;12.00;1.00;;;;;;5110416;27;20457;-76
2021/03/04 00:25:23;;;;;;;7.60;4.20;;;12.10;1.00;;;;;;5097087;28;20453;-76
2021/03/04 00:27:50;;;;;;;8.50;4.60;;;11.90;1.00;;;;;;5087356;28;20840;-76
2021/03/04 00:30:20;;;;;;;7.10;4.97;;;11.90;1.00;;;;;;5105061;28;20977;-77
2021/03/04 00:32:47;;;;;;;8.70;4.50;;;11.90;1.00;;;;;;5093495;28;20467;-76
2021/03/04 00:35:15;;;;;;;5.13;4.60;;;11.90;1.00;;;;;;5089981;28;20733;-76
2021/03/04 00:37:42;;;;;;;5.33;4.40;;;12.00;1.00;;;;;;5099381;28;21054;-75
2021/03/04 00:40:11;;;;;;;6.13;5.60;;;12.00;1.00;;;;;;5090798;28;20505;-75
2021/03/04 00:42:39;;;;;;;7.33;5.60;;;12.00;1.00;;;;;;5092582;28;20463;-74
2021/03/04 00:45:08;;;;;;;6.87;3.90;;;11.90;1.00;;;;;;5089780;28;20499;-76
2021/03/04 00:47:37;;;;;;;7.87;4.90;;;11.90;1.00;;;;;;5100423;28;20542;-75
2021/03/04 00:50:05;;;;;;;7.40;5.10;;;11.80;1.00;;;;;;5078577;28;20595;-76
2021/03/04 00:52:32;;;;;;;5.37;4.07;;;11.80;1.00;;;;;;5067639;28;20461;-75
2021/03/04 00:54:59;;;;;;;8.37;4.40;;;11.90;1.00;;;;;;5089599;28;20450;-75
2021/03/04 00:57:26;;;;;;;7.07;4.80;;;11.70;1.00;;;;;;5091453;28;20474;-75
2021/03/04 00:59:53;;;;;;;7.90;5.40;;;11.70;1.00;;;;;;5096910;28;20983;-74
2021/03/04 01:02:20;;;;;;;8.03;4.93;;;11.70;1.00;;;;;;5097870;28;21002;-75
2021/03/04 01:04:48;;;;;;;5.77;3.47;;;11.70;1.00;;;;;;5096674;28;20529;-76
2021/03/04 01:07:15;;;;;;;8.30;5.03;;;11.70;1.00;;;;;;5098308;28;20508;-76
2021/03/04 01:09:42;;;;;;;5.63;4.07;;;11.70;1.00;;;;;;5095550;28;20859;-76
2021/03/04 01:12:10;;;;;;;5.20;4.60;;;11.60;1.00;;;;;;5082049;28;20841;-76
2021/03/04 01:14:37;;;;;;;7.30;4.47;;;11.60;1.00;;;;;;5101171;28;20468;-76
2021/03/04 01:17:08;;;;;;;4.17;3.77;;;11.60;1.00;;;;;;5082344;28;20481;-76
2021/03/04 01:19:36;;;;;;;6.70;4.47;;;11.60;1.00;;;;;;5094843;28;20452;-77
2021/03/04 01:22:04;;;;;;;7.70;5.40;;;11.60;1.00;;;;;;5108652;27;20540;-75
2021/03/04 01:24:31;;;;;;;6.43;5.07;;;11.60;1.00;;;;;;5104313;28;20456;-77
2021/03/04 01:26:58;;;;;;;6.60;4.50;;;11.50;1.00;;;;;;5084787;28;20721;-76
2021/03/04 01:29:26;;;;;;;7.40;4.20;;;11.60;1.00;;;;;;5093514;28;20448;-75
2021/03/04 01:31:53;;;;;;;6.27;5.57;;;11.60;1.00;;;;;;5102756;28;20437;-75
2021/03/04 01:34:20;;;;;;;8.00;5.43;;;11.60;1.00;;;;;;5084513;28;20817;-75
2021/03/04 01:36:47;;;;;;;10.07;6.30;;;11.60;1.00;;;;;;5124671;27;21051;-76
2021/03/04 01:39:15;;;;;;;5.23;4.73;;;11.60;1.00;;;;;;5102946;28;20464;-76
2021/03/04 01:41:42;;;;;;;8.30;5.87;;;11.60;1.00;;;;;;5101605;28;20474;-75
2021/03/04 01:44:09;;;;;;;7.30;5.43;;;11.70;1.00;;;;;;5096924;28;20489;-76
2021/03/04 01:46:36;;;;;;;9.07;6.13;;;11.60;1.00;;;;;;5103479;28;20488;-76
2021/03/04 01:49:03;;;;;;;6.50;5.20;;;11.60;1.00;;;;;;5086888;28;20449;-74
2021/03/04 01:51:31;;;;;;;9.93;5.07;;;11.50;1.00;;;;;;5069122;28;21166;-75
2021/03/04 01:53:58;;;;;;;8.27;6.10;;;11.50;1.00;;;;;;5091990;28;20465;-76
2021/03/04 01:56:26;;;;;;;7.27;4.63;;;11.60;1.00;;;;;;5086092;28;20558;-75
2021/03/04 01:58:53;;;;;;;7.03;5.07;;;11.60;1.00;;;;;;5073874;28;20514;-75
2021/03/04 02:01:20;;;;;;;7.60;4.93;;;11.70;1.00;;;;;;5092385;28;20580;-77
2021/03/04 02:03:47;;;;;;;9.13;6.27;;;11.60;1.00;;;;;;5093075;28;20544;-74
2021/03/04 02:06:16;;;;;;;7.70;5.63;;;11.70;1.00;;;;;;5090233;28;20492;-77
2021/03/04 02:08:51;;;;;;;6.77;5.73;;;11.60;1.00;;;;;;5087385;28;20457;-78
2021/03/04 02:11:24;;;;;;;6.30;5.07;;;11.60;1.00;;;;;;5085125;28;20448;-76
2021/03/04 02:13:58;;;;;;;6.33;5.70;;;11.60;1.00;;;;;;5093391;28;20448;-76
2021/03/04 02:16:46;;;;;;;6.70;5.20;;;11.70;1.00;;;;;;5083663;28;20490;-77
2021/03/04 02:19:31;;;;;;;5.87;5.27;;;11.50;1.00;;;;;;5087323;27;20544;-77
2021/03/04 02:22:08;;;;;;;9.03;5.30;;;11.40;1.00;;;;;;5088703;28;20478;-77
2021/03/04 02:24:51;;;;;;;8.20;5.20;;;11.40;1.00;;;;;;5089723;28;20452;-76
2021/03/04 02:27:24;;;;;;;5.47;3.93;;;11.40;1.00;;;;;;5094456;28;20484;-76
2021/03/04 02:29:59;;;;;;;7.07;5.03;;;11.40;1.00;;;;;;5094346;28;20458;-77
2021/03/04 02:32:27;;;;;;;7.20;4.97;;;11.50;1.00;;;;;;5067857;28;20568;-76
2021/03/04 02:34:59;;;;;;;7.93;5.50;;;11.40;1.00;;;;;;5094705;28;20461;-76
2021/03/04 02:37:31;;;;;;;6.53;4.70;;;11.40;1.00;;;;;;5090487;28;20527;-77
2021/03/04 02:39:59;;;;;;;7.13;4.77;;;11.30;1.00;;;;;;5095343;28;22335;-76
2021/03/04 02:42:28;;;;;;;7.20;5.33;;;11.30;1.00;;;;;;5088064;28;20441;-76
2021/03/04 02:44:57;;;;;;;6.83;5.10;;;11.30;1.00;;;;;;5069296;28;20449;-75
2021/03/04 02:47:25;;;;;;;6.00;4.20;;;11.30;1.00;;;;;;5096925;28;20465;-77
2021/03/04 02:49:53;;;;;;;6.43;5.23;;;11.30;1.00;;;;;;5091531;28;20464;-77
2021/03/04 02:52:21;;;;;;;5.13;4.10;;;11.30;1.00;;;;;;5093131;28;20448;-78
2021/03/04 02:54:49;;;;;;;4.27;3.87;;;11.20;1.00;;;;;;5094504;28;20465;-77
2021/03/04 02:57:18;;;;;;;7.03;4.50;;;11.20;1.00;;;;;;5098910;28;20473;-76
2021/03/04 02:59:47;;;;;;;9.10;4.80;;;11.20;1.00;;;;;;5084196;28;20453;-76
2021/03/04 03:02:15;;;;;;;4.67;3.70;;;11.20;1.00;;;;;;5085284;28;20558;-74
2021/03/04 03:04:44;;;;;;;13.90;4.70;;;11.20;1.00;;;;;;5086713;28;20461;-76
2021/03/04 03:07:12;;;;;;;5.20;4.70;;;11.20;1.00;;;;;;5085117;28;20488;-75
2021/03/04 03:09:42;;;;;;;4.90;4.00;;;11.20;1.00;;;;;;5071201;28;20518;-75
2021/03/04 03:12:12;;;;;;;7.77;5.50;;;11.20;1.00;;;;;;5085665;28;20486;-75
2021/03/04 03:14:40;;;;;;;6.20;5.50;;;11.30;1.00;;;;;;5092535;28;20462;-77
2021/03/04 03:17:08;;;;;;;6.63;4.90;;;11.30;1.00;;;;;;5085243;28;20835;-77
2021/03/04 03:19:53;;;;;;;4.67;4.10;;;11.20;1.00;;;;;;5084584;28;20472;-77
2021/03/04 03:22:21;;;;;;;4.37;3.80;;;11.30;1.00;;;;;;5073208;28;20470;-75
2021/03/04 03:24:48;;;;;;;4.77;3.73;;;11.30;1.00;;;;;;5091653;28;21762;-76
2021/03/04 03:27:15;;;;;;;6.03;4.90;;;11.40;1.00;;;;;;5069128;28;20575;-76
2021/03/04 03:29:43;;;;;;;5.80;4.47;;;11.40;1.00;;;;;;5092808;28;20468;-76
2021/03/04 03:32:12;;;;;;;10.17;5.47;;;11.40;1.00;;;;;;5087206;28;20457;-75
2021/03/04 03:34:39;;;;;;;4.97;4.27;;;11.30;1.00;;;;;;5072697;28;20584;-72
2021/03/04 03:37:07;;;;;;;7.60;4.60;;;11.30;1.00;;;;;;5097140;28;20486;-75
2021/03/04 03:39:36;;;;;;;4.87;4.40;;;11.30;1.00;;;;;;5079073;28;20498;-75
2021/03/04 03:42:05;;;;;;;5.47;3.63;;;11.30;1.00;;;;;;5093070;28;20555;-75
2021/03/04 03:44:33;;;;;;;4.27;3.50;;;11.30;1.00;;;;;;5089638;28;20468;-76
2021/03/04 03:47:02;;;;;;;4.67;3.10;;;11.30;1.00;;;;;;5093241;28;20476;-75
2021/03/04 03:49:31;;;;;;;6.80;4.33;;;11.30;1.00;;;;;;5095849;28;20467;-76
2021/03/04 03:52:01;;;;;;;6.17;4.00;;;11.30;1.00;;;;;;5098233;28;20449;-76
2021/03/04 03:54:29;;;;;;;7.30;5.23;;;11.30;1.00;;;;;;5088395;28;20486;-77
2021/03/04 03:56:59;;;;;;;6.87;4.13;;;11.40;1.00;;;;;;5088223;28;21082;-75
2021/03/04 03:59:27;;;;;;;3.80;3.37;;;11.50;1.00;;;;;;5084554;28;20461;-76
2021/03/04 04:01:55;;;;;;;5.87;4.37;;;11.50;1.00;;;;;;5088071;28;20492;-77
2021/03/04 04:04:22;;;;;;;5.50;3.73;;;11.50;1.00;;;;;;5092788;28;20468;-77
2021/03/04 04:06:51;;;;;;;5.20;3.53;;;11.50;1.00;;;;;;5092611;28;21027;-75
2021/03/04 04:09:18;;;;;;;6.27;4.17;;;11.50;1.00;;;;;;5100094;28;20822;-76
2021/03/04 04:11:45;;;;;;;5.33;3.97;;;11.50;1.00;;;;;;5092095;28;20461;-75
2021/03/04 04:14:13;;;;;;;6.03;4.10;;;11.40;1.00;;;;;;5095143;28;20449;-76
2021/03/04 04:16:40;;;;;;;7.27;4.87;;;11.50;1.00;;;;;;5093262;28;20538;-79
2021/03/04 04:19:08;;;;;;;6.67;4.17;;;11.50;1.00;;;;;;5090169;28;20548;-75
2021/03/04 04:21:35;;;;;;;6.70;4.57;;;11.50;1.00;;;;;;5089905;28;20484;-75
2021/03/04 04:24:04;;;;;;;4.23;3.67;;;11.40;1.00;;;;;;5084740;28;20851;-76
2021/03/04 04:26:31;;;;;;;5.60;4.80;;;11.40;1.00;;;;;;5086967;28;20469;-76
2021/03/04 04:28:58;;;;;;;6.13;3.77;;;11.40;1.00;;;;;;5098433;28;20445;-78
2021/03/04 04:31:25;;;;;;;7.37;4.17;;;11.40;1.00;;;;;;5089597;28;20501;-76
2021/03/04 04:33:53;;;;;;;6.00;4.60;;;11.40;1.00;;;;;;5071169;28;20457;-77
2021/03/04 04:36:20;;;;;;;7.37;4.20;;;11.40;1.00;;;;;;5091244;28;20472;-77
2021/03/04 04:38:47;;;;;;;6.27;4.33;;;11.40;1.00;;;;;;5106092;27;20444;-76
2021/03/04 04:41:15;;;;;;;5.30;4.60;;;11.40;1.00;;;;;;5096258;28;20485;-75
2021/03/04 04:43:42;;;;;;;6.30;4.80;;;11.30;1.00;;;;;;5099704;28;20518;-77
2021/03/04 04:46:10;;;;;;;5.23;4.30;;;11.30;1.00;;;;;;5097378;28;20497;-76
2021/03/04 04:48:38;;;;;;;7.23;4.83;;;11.10;1.00;;;;;;5104940;28;20452;-76
2021/03/04 04:51:11;;;;;;;6.67;4.83;;;11.20;1.00;;;;;;5099823;28;20498;-77
2021/03/04 04:53:38;;;;;;;6.17;4.07;;;11.20;1.00;;;;;;5093876;27;20448;-76
2021/03/04 04:56:06;;;;;;;10.00;4.27;;;11.20;1.00;;;;;;5090599;28;20471;-74
2021/03/04 04:58:34;;;;;;;4.70;3.40;;;11.20;1.00;;;;;;5099010;28;20456;-76
2021/03/04 05:01:01;;;;;;;7.33;5.70;;;11.20;1.00;;;;;;5093222;28;21480;-76
2021/03/04 05:03:29;;;;;;;5.20;4.47;;;11.10;1.00;;;;;;5072891;28;20453;-76
2021/03/04 05:05:56;;;;;;;6.33;4.00;;;11.10;1.00;;;;;;5103706;28;20482;-76
2021/03/04 05:08:23;;;;;;;5.97;3.97;;;11.10;1.00;;;;;;5107404;28;20487;-76
2021/03/04 05:10:50;;;;;;;6.73;4.47;;;11.10;1.00;;;;;;5090360;28;21025;-77
2021/03/04 05:13:17;;;;;;;10.00;4.30;;;11.20;1.00;;;;;;5084660;28;20850;-75
2021/03/04 05:15:45;;;;;;;4.73;3.23;;;11.20;1.00;;;;;;5099930;28;20501;-77
2021/03/04 05:18:12;;;;;;;7.27;4.00;;;11.30;1.00;;;;;;5099212;28;20839;-75
2021/03/04 05:20:40;;;;;;;5.53;4.30;;;11.30;1.00;;;;;;5089765;28;20587;-76
2021/03/04 05:23:07;;;;;;;5.30;4.13;;;11.20;1.00;;;;;;5097516;28;20484;-73
2021/03/04 05:25:34;;;;;;;5.60;4.73;;;11.20;1.00;;;;;;5110047;28;20463;-75
2021/03/04 05:28:01;;;;;;;6.20;4.00;;;11.10;1.00;;;;;;5084608;28;20469;-75
2021/03/04 05:30:28;;;;;;;6.70;4.77;;;11.10;1.00;;;;;;5077217;28;20456;-77
2021/03/04 05:32:56;;;;;;;7.57;5.10;;;11.10;1.00;;;;;;5092769;28;20453;-74
2021/03/04 05:35:23;;;;;;;8.67;4.70;;;11.00;1.00;;;;;;5086609;28;20466;-77
2021/03/04 05:37:51;;;;;;;7.33;3.80;;;10.90;1.00;;;;;;5100974;27;20475;-74
2021/03/04 05:40:18;;;;;;;6.30;4.50;;;10.90;1.00;;;;;;5105188;28;20444;-75
2021/03/04 05:42:46;;;;;;;6.53;4.97;;;11.00;1.00;;;;;;5108890;28;20483;-77
2021/03/04 05:45:17;;;;;;;6.87;5.20;;;11.00;1.00;;;;;;5091241;27;20936;-74
2021/03/04 05:47:50;;;;;;;6.18;5.07;;;10.90;1.00;;;;;;5112631;27;20434;-76
2021/03/04 05:50:19;;;;;;;4.83;4.20;;;11.30;1.00;;;;;;5102370;27;20203;-74
2021/03/04 05:52:50;;;;;;;4.90;4.23;;;11.30;1.00;;;;;;5082565;28;20536;-76
2021/03/04 05:55:18;;;;;;;4.83;3.77;;;11.30;1.00;;;;;;5087572;28;20546;-74
2021/03/04 05:57:45;;;;;;;5.13;3.93;;;11.20;1.00;;;;;;5090643;28;20480;-74
2021/03/04 06:00:14;;;;;;;6.00;4.33;;;11.30;1.00;;;;;;5098685;28;20461;-77
2021/03/04 06:02:43;;;;;;;6.77;4.00;;;11.30;1.00;;;;;;5088569;28;20466;-76
2021/03/04 06:05:12;;;;;;;6.23;5.07;;;11.50;1.00;;;;;;5087807;27;20469;-78
2021/03/04 06:07:43;;;;;;;6.87;4.80;;;11.30;1.00;;;;;;5076832;28;20529;-75
2021/03/04 06:10:12;;;;;;;10.13;5.57;;;11.20;1.00;;;;;;5107109;27;20457;-76
2021/03/04 06:12:39;;;;;;;10.40;5.83;;;11.20;1.00;;;;;;5103317;28;20979;-76
2021/03/04 06:15:08;;;;;;;6.57;5.20;;;11.10;1.00;;;;;;5104100;28;20437;-77
2021/03/04 06:17:35;;;;;;;7.30;4.97;;;11.10;1.00;;;;;;5092912;28;20487;-77
2021/03/04 06:20:05;;;;;;;7.33;5.63;;;11.10;1.00;;;;;;5087668;28;20456;-77
2021/03/04 06:22:34;;;;;;;9.20;5.33;;;11.00;1.00;;;;;;5090119;28;22137;-77
2021/03/04 06:25:07;;;;;;;8.00;5.10;;;11.00;1.00;;;;;;5087998;28;21052;-78
2021/03/04 06:27:37;;;;;;;8.57;5.68;;;11.00;1.00;;;;;;5083340;28;20452;-78
2021/03/04 06:30:07;;;;;;;6.73;5.27;;;11.00;1.00;;;;;;5091376;28;20195;-80
2021/03/04 06:32:35;;;;;;;5.93;4.70;;;11.00;1.00;;;;;;5097926;27;20449;-76
2021/03/04 06:35:08;;;;;;;5.00;4.50;;;11.00;1.00;;;;;;5092568;28;20485;-77
2021/03/04 06:37:37;;;;;;;9.50;5.27;;;11.00;1.00;;;;;;5102090;27;20641;-78
2021/03/04 06:40:08;;;;;;;7.47;5.78;;;10.90;1.00;;;;;;5092364;27;20458;-77
2021/03/04 06:42:40;;;;;;;7.93;5.10;;;11.00;1.00;;;;;;5086340;28;20351;-76
2021/03/04 06:45:20;;;;;;;19.70;9.87;;;11.00;1.00;;;;;;5079434;28;20546;-77
2021/03/04 06:47:47;;;;;;;25.37;12.20;;;11.00;1.00;;;;;;5089273;28;20935;-75
2021/03/04 06:50:22;;;;;;;11.83;7.47;;;10.90;1.00;;;;;;5084914;28;20537;-76
2021/03/04 06:52:49;;;;;;;13.17;9.10;;;10.90;1.00;;;;;;5071578;28;20450;-76
2021/03/04 06:55:18;;;;;;;21.10;12.23;;;10.80;1.00;;;;;;5097612;28;20879;-74
2021/03/04 06:57:59;;;;;;;16.43;8.20;;;10.80;1.00;;;;;;5098618;27;20475;-73
2021/03/04 07:00:26;;;;;;;33.90;16.17;;;10.90;1.00;;;;;;5098793;27;20441;-73
2021/03/04 07:02:54;;;;;;;14.80;8.50;;;10.80;1.00;;;;;;5096679;28;21020;-74
2021/03/04 07:05:23;;;;;;;10.47;6.57;;;10.90;1.00;;;;;;5094949;28;20460;-73
2021/03/04 07:07:51;;;;;;;10.23;6.50;;;10.90;1.00;;;;;;5089164;27;20484;-73
2021/03/04 07:10:20;;;;;;;10.87;6.63;;;10.90;1.00;;;;;;5077041;28;20564;-75
2021/03/04 07:12:49;;;;;;;9.90;6.00;;;11.00;1.00;;;;;;5081547;28;20449;-77
2021/03/04 07:15:18;;;;;;;17.67;7.77;;;11.10;1.00;;;;;;5095020;28;20959;-77
2021/03/04 07:17:48;;;;;;;9.53;6.30;;;11.00;1.00;;;;;;5077655;28;20474;-74
2021/03/04 07:20:18;;;;;;;11.80;5.80;;;11.00;1.00;;;;;;5095453;28;20436;-78
2021/03/04 07:23:03;;;;;;;14.97;6.70;;;11.00;1.00;;;;;;5093225;28;20490;-78
2021/03/04 07:25:32;;;;;;;9.73;6.33;;;11.10;1.00;;;;;;5078010;28;20447;-79
2021/03/04 07:28:01;;;;;;;8.47;7.00;;;11.10;1.00;;;;;;5111451;27;20476;-80
2021/03/04 07:30:32;;;;;;;8.63;6.20;;;11.40;1.00;;;;;;5098394;28;21425;-79
2021/03/04 07:33:00;;;;;;;8.77;6.00;;;11.50;1.00;;;;;;5097407;28;20443;-79
2021/03/04 07:35:27;;;;;;;9.57;4.53;;;11.30;1.00;;;;;;5096765;28;20965;-79
2021/03/04 07:37:55;;;;;;;6.50;4.50;;;11.30;1.00;;;;;;5077858;28;20476;-79
2021/03/04 07:40:22;;;;;;;7.50;5.77;;;11.40;1.00;;;;;;5098904;28;20448;-79
2021/03/04 07:43:00;;;;;;;6.00;4.60;;;11.50;1.00;;;;;;5096851;28;20476;-78
2021/03/04 07:45:28;;;;;;;10.27;5.47;;;11.50;1.00;;;;;;5095465;28;20441;-78
2021/03/04 07:47:55;;;;;;;13.83;5.00;;;11.70;1.00;;;;;;5097120;28;20460;-79
2021/03/04 07:50:24;;;;;;;7.10;4.20;;;11.80;1.00;;;;;;5095631;28;20889;-79
2021/03/04 07:53:02;;;;;;;8.13;5.73;;;11.90;1.00;;;;;;5096229;28;20445;-79
2021/03/04 07:55:38;;;;;;;9.73;5.40;;;12.00;1.00;;;;;;5077228;28;20456;-78
2021/03/04 07:58:14;;;;;;;10.18;6.38;;;12.20;1.00;;;;;;5093577;28;20443;-77
2021/03/04 08:00:42;;;;;;;10.50;5.77;;;12.40;1.00;;;;;;5093051;28;20201;-78
2021/03/04 08:03:09;;;;;;;6.13;4.77;;;12.30;1.00;;;;;;5087914;28;20496;-75
2021/03/04 08:05:38;;;;;;;6.97;4.83;;;12.20;1.00;;;;;;5098744;28;20473;-76
2021/03/04 08:08:14;;;;;;;8.90;4.70;;;12.10;1.00;;;;;;5092217;28;20606;-78
2021/03/04 08:10:49;;;;;;;7.30;5.00;;;12.10;1.00;;;;;;5093196;28;20444;-76
2021/03/04 08:13:18;;;;;;;5.20;4.50;;;12.10;1.00;;;;;;5098053;27;20480;-78
2021/03/04 08:15:46;;;;;;;7.10;4.90;;;12.10;1.00;;;;;;5096967;28;20461;-77
2021/03/04 08:18:19;;;;;;;7.03;5.00;;;12.30;1.00;;;;;;5113213;27;20457;-77
2021/03/04 08:20:48;;;;;;;7.73;5.30;;;12.60;1.00;;;;;;5111240;27;20467;-76
2021/03/04 08:23:17;;;;;;;7.10;4.60;;;12.80;1.00;;;;;;5098937;28;20469;-77
2021/03/04 08:25:44;;;;;;;7.63;5.03;;;12.90;1.00;;;;;;5093720;28;20462;-77
2021/03/04 08:28:22;;;;;;;9.17;6.47;;;13.10;1.00;;;;;;5075867;28;20820;-76
2021/03/04 08:30:50;;;;;;;8.40;5.17;;;13.50;1.00;;;;;;5091158;28;20446;-76
2021/03/04 08:33:17;;;;;;;8.77;6.20;;;13.60;1.00;;;;;;5085080;28;20859;-77
2021/03/04 08:35:46;;;;;;;9.60;5.50;;;14.30;1.00;;;;;;5096171;27;20657;-77
2021/03/04 08:38:16;;;;;;;11.33;5.93;;;14.30;1.00;;;;;;5095966;28;20566;-77
2021/03/04 08:40:45;;;;;;;6.20;4.83;;;14.50;1.00;;;;;;5074464;28;21453;-77
2021/03/04 08:43:17;;;;;;;7.77;5.80;;;14.70;1.00;;;;;;5100664;28;20486;-77
2021/03/04 08:45:46;;;;;;;9.60;5.63;;;14.90;1.00;;;;;;5097291;28;20597;-76
2021/03/04 08:48:14;;;;;;;11.47;5.33;;;15.00;1.00;;;;;;5095214;28;20459;-76
2021/03/04 08:50:44;;;;;;;7.03;5.20;;;15.00;1.00;;;;;;5100198;27;20869;-76
2021/03/04 08:53:13;;;;;;;7.90;5.07;;;14.80;1.00;;;;;;5095455;28;20459;-76
2021/03/04 08:55:45;;;;;;;15.33;6.13;;;14.70;1.00;;;;;;5093350;28;20470;-77
2021/03/04 08:58:13;;;;;;;7.80;4.97;;;14.60;1.00;;;;;;5095433;28;20474;-77
2021/03/04 09:00:46;;;;;;;8.10;5.80;;;14.60;1.00;;;;;;5098802;28;20452;-78
2021/03/04 09:03:21;;;;;;;8.27;5.20;;;14.60;1.00;;;;;;5100765;28;20576;-77
2021/03/04 09:05:50;;;;;;;9.90;5.93;;;14.50;1.00;;;;;;5097169;28;20451;-77
2021/03/04 09:08:18;;;;;;;11.20;6.90;;;14.60;1.00;;;;;;5109708;27;20505;-76
2021/03/04 09:10:47;;;;;;;8.93;6.07;;;15.00;1.00;;;;;;5075319;28;20475;-76
2021/03/04 09:13:20;;;;;;;10.63;6.47;;;15.30;1.00;;;;;;5093227;28;21183;-77
2021/03/04 09:15:51;;;;;;;8.33;5.43;;;15.50;1.10;;;;;;5082772;28;20490;-75
2021/03/04 09:18:20;;;;;;;8.50;5.50;;;15.70;2.30;;;;;;5076439;28;20441;-79
2021/03/04 09:20:49;;;;;;;9.07;5.73;;;16.20;6.20;;;;;;5074347;28;20559;-78
2021/03/04 09:23:16;;;;;;;10.27;6.32;;;16.60;7.80;;;;;;5096670;28;20496;-78
2021/03/04 09:25:44;;;;;;;15.53;6.10;;;17.10;12.40;;;;;;5102256;28;20204;-78
2021/03/04 09:28:15;;;;;;;11.30;6.00;;;17.00;9.70;;;;;;5091290;28;20486;-77
2021/03/04 09:30:43;;;;;;;10.57;5.47;;;16.80;7.90;;;;;;5091577;27;20480;-77
2021/03/04 09:33:20;;;;;;;11.00;5.83;;;17.00;9.10;;;;;;5089123;28;20966;-78
2021/03/04 09:36:08;;;;;;;15.03;6.37;;;17.10;10.90;;;;;;5091507;28;20954;-77
2021/03/04 09:38:37;;;;;;;11.83;6.37;;;17.40;12.30;;;;;;5065614;28;20469;-83
2021/03/04 09:41:10;;;;;;;8.10;4.60;;;17.70;14.00;;;;;;5084209;28;20594;-77
2021/03/04 09:43:42;;;;;;;9.50;5.70;;;18.00;16.60;;;;;;5098295;27;20482;-79
2021/03/04 09:46:13;;;;;;;9.27;4.90;;;18.20;17.00;;;;;;5096432;28;20476;-78
2021/03/04 09:48:41;;;;;;;17.40;8.17;;;18.50;17.90;;;;;;5096307;28;20445;-79
2021/03/04 09:51:09;;;;;;;10.43;5.30;;;18.50;19.70;;;;;;5096780;28;20476;-76
2021/03/04 09:53:46;;;;;;;7.53;5.23;;;18.70;20.00;;;;;;5100138;28;20449;-79
2021/03/04 09:56:20;;;;;;;6.30;4.70;;;18.80;18.90;;;;;;5098254;28;20487;-77
2021/03/04 09:58:47;;;;;;;13.20;5.80;;;19.00;21.00;;;;;;5072878;28;20457;-77
2021/03/04 10:01:14;;;;;;;6.83;6.17;;;19.20;22.60;;;;;;5096164;28;20570;-77
2021/03/04 10:03:44;;;;;;;11.77;5.73;;;19.10;22.50;;;;;;5079844;28;20442;-75
2021/03/04 10:06:21;;;;;;;8.80;5.23;;;19.20;22.00;;;;;;5097169;28;20481;-77
2021/03/04 10:08:53;;;;;;;8.80;5.63;;;19.40;23.30;;;;;;5097132;28;20464;-77
2021/03/04 10:11:22;;;;;;;12.07;5.97;;;19.50;24.00;;;;;;5100706;28;20457;-77
2021/03/04 10:13:50;;;;;;;11.77;4.80;;;19.80;26.10;;;;;;5096691;28;21161;-77
2021/03/04 10:16:17;;;;;;;8.53;4.23;;;19.90;26.60;;;;;;5099803;28;20468;-76
2021/03/04 10:18:46;;;;;;;9.30;5.17;;;19.90;26.40;;;;;;5100453;28;20456;-77
2021/03/04 10:21:14;;;;;;;9.80;5.30;;;19.70;24.40;;;;;;5097910;28;20570;-77
2021/03/04 10:23:45;;;;;;;11.87;5.87;;;19.70;24.10;;;;;;5098105;28;20482;-77
2021/03/04 10:26:12;;;;;;;9.10;5.50;;;19.80;25.40;;;;;;5098995;27;20474;-77
2021/03/04 10:28:39;;;;;;;8.20;5.50;;;19.80;26.00;;;;;;5097255;28;20521;-78
2021/03/04 10:31:06;;;;;;;9.77;5.80;;;20.10;28.20;;;;;;5112517;27;20541;-77
2021/03/04 10:33:34;;;;;;;10.07;6.90;;;20.30;29.70;;;;;;5097852;28;20449;-78
2021/03/04 10:36:02;;;;;;;8.57;5.10;;;20.50;30.60;;;;;;5080193;28;20478;-78
2021/03/04 10:38:30;;;;;;;6.03;5.10;;;20.70;32.80;;;;;;5100127;28;20461;-77
2021/03/04 10:40:57;;;;;;;15.53;6.63;;;21.00;35.80;;;;;;5094866;28;20458;-79
2021/03/04 10:43:24;;;;;;;8.87;6.47;;;21.00;35.80;;;;;;5097877;28;20464;-78
2021/03/04 10:45:51;;;;;;;9.70;6.57;;;21.20;37.40;;;;;;5098309;28;20455;-78
2021/03/04 10:48:21;;;;;;;8.70;6.83;;;21.20;37.10;;;;;;5083779;28;20477;-77
2021/03/04 10:50:49;;;;;;;10.60;6.97;;;21.40;39.30;;;;;;5105493;27;20548;-77
2021/03/04 10:53:17;;;;;;;13.50;6.53;;;21.60;40.50;;;;;;5099049;28;20452;-78
2021/03/04 10:55:44;;;;;;;10.70;6.33;;;21.80;44.00;;;;;;5092778;28;20457;-77
2021/03/04 10:58:11;;;;;;;8.33;6.00;;;21.90;44.90;;;;;;5090114;28;20475;-77
2021/03/04 11:00:41;;;;;;;7.87;5.63;;;22.10;45.20;;;;;;5072071;28;20457;-78
2021/03/04 11:03:08;;;;;;;11.10;5.47;;;22.20;45.50;;;;;;5072655;28;20885;-76
2021/03/04 11:05:36;;;;;;;9.47;6.83;;;22.20;45.50;;;;;;5087896;28;20471;-77
2021/03/04 11:08:04;;;;;;;12.37;7.17;;;22.30;46.40;;;;;;5087143;28;20465;-77
2021/03/04 11:10:32;;;;;;;11.40;7.30;;;22.10;44.50;;;;;;5087991;28;21043;-77
2021/03/04 11:13:00;;;;;;;10.10;6.13;;;22.10;44.90;;;;;;5089834;28;20509;-77
2021/03/04 11:15:27;;;;;;;12.73;6.13;;;22.10;45.50;;;;;;5090615;28;20545;-78
2021/03/04 11:17:54;;;;;;;12.30;7.20;;;22.20;46.30;;;;;;5097497;28;20964;-77
2021/03/04 11:20:22;;;;;;;8.17;7.13;;;22.00;41.30;;;;;;5093202;27;20828;-77
2021/03/04 11:22:49;;;;;;;10.87;7.70;;;21.70;38.10;;;;;;5088643;28;20563;-77
2021/03/04 11:25:16;;;;;;;12.57;6.30;;;21.50;35.90;;;;;;5070298;28;20827;-78
2021/03/04 11:27:44;;;;;;;13.03;6.70;;;21.20;33.50;;;;;;5086788;28;20507;-77
2021/03/04 11:30:12;;;;;;;8.43;7.10;;;20.60;28.40;;;;;;5075842;28;20455;-77
2021/03/04 11:32:39;;;;;;;11.80;7.50;;;20.40;25.10;;;;;;5109213;27;20457;-76
2021/03/04 11:35:08;;;;;;;8.67;6.10;;;20.20;23.40;;;;;;5108490;27;20459;-76
2021/03/04 11:37:35;;;;;;;10.93;6.30;;;20.00;21.20;;;;;;5086645;28;20811;-74
2021/03/04 11:40:04;;;;;;;9.53;6.07;;;19.80;20.70;;;;;;5090647;28;21068;-74
2021/03/04 11:42:32;;;;;;;11.23;6.00;;;19.80;19.90;;;;;;5092669;28;20996;-73
2021/03/04 11:45:00;;;;;;;10.03;5.70;;;19.70;19.40;;;;;;5083261;28;20449;-75
2021/03/04 11:47:28;;;;;;;12.17;6.90;;;19.60;19.00;;;;;;5101137;28;20477;-74
2021/03/04 11:49:55;;;;;;;11.90;7.03;;;19.50;18.20;;;;;;5090427;28;20457;-74
2021/03/04 11:52:22;;;;;;;11.50;6.63;;;19.40;17.60;;;;;;5090471;28;20457;-75
2021/03/04 11:54:50;;;;;;;10.37;6.40;;;19.30;16.90;;;;;;5082816;28;20484;-78
2021/03/04 11:57:17;;;;;;;14.33;8.37;;;19.20;16.40;;;;;;5087174;28;20495;-76
2021/03/04 11:59:44;;;;;;;16.13;6.63;;;19.10;15.40;;;;;;5085568;28;20971;-76
2021/03/04 12:02:12;;;;;;;13.17;6.67;;;19.20;16.40;;;;;;5089057;28;20496;-75
2021/03/04 12:04:39;;;;;;;11.90;7.10;;;19.10;15.40;;;;;;5090036;28;20456;-80
2021/03/04 12:07:07;;;;;;;8.53;5.70;;;19.00;15.70;;;;;;5093568;28;20683;-76
2021/03/04 12:09:34;;;;;;;13.67;6.10;;;19.00;14.90;;;;;;5101378;28;20448;-75
2021/03/04 12:12:01;;;;;;;12.10;6.13;;;18.80;13.20;;;;;;5089891;28;20978;-75
2021/03/04 12:14:28;;;;;;;8.40;6.50;;;18.70;13.30;;;;;;5100377;28;20460;-76
2021/03/04 12:16:55;;;;;;;10.30;6.00;;;18.90;13.60;;;;;;5103032;28;20488;-75
2021/03/04 12:19:24;;;;;;;8.37;6.70;;;18.80;13.90;;;;;;5085762;28;20460;-76
2021/03/04 12:21:51;;;;;;;9.30;6.30;;;18.80;13.20;;;;;;5085417;28;20518;-77
2021/03/04 12:24:18;;;;;;;13.67;6.93;;;18.60;12.00;;;;;;5085860;28;20455;-76
2021/03/04 12:26:47;;;;;;;10.40;6.10;;;18.60;12.30;;;;;;5085679;28;20480;-76
2021/03/04 12:29:15;;;;;;;10.87;7.17;;;18.50;10.80;;;;;;5089269;28;20452;-77
2021/03/04 12:31:43;;;;;;;10.95;6.60;;;18.30;10.30;;;;;;5101843;28;20434;-77
2021/03/04 12:34:11;;;;;;;9.77;7.63;;;18.60;12.40;;;;;;5098665;28;20198;-78
2021/03/04 12:36:43;;;;;;;10.30;6.40;;;18.40;11.40;;;;;;5083215;28;20475;-77
2021/03/04 12:39:11;;;;;;;9.43;6.10;;;18.40;11.50;;;;;;5100688;28;20457;-76
2021/03/04 12:41:38;;;;;;;10.50;6.00;;;18.40;11.10;;;;;;5098280;28;20456;-77
2021/03/04 12:44:06;;;;;;;9.60;5.80;;;18.30;12.00;;;;;;5085609;28;20483;-75
2021/03/04 12:46:33;;;;;;;7.43;6.20;;;18.30;10.60;;;;;;5081659;28;20957;-76
2021/03/04 12:49:01;;;;;;;9.00;5.93;;;18.30;9.20;;;;;;5081593;28;20557;-76
2021/03/04 12:51:28;;;;;;;11.63;6.73;;;18.20;9.60;;;;;;5102992;28;20456;-77
2021/03/04 12:53:56;;;;;;;8.63;6.10;;;18.20;10.20;;;;;;5106537;28;20451;-77
2021/03/04 12:56:23;;;;;;;9.60;6.63;;;18.30;21.80;;;;;;5103978;28;20440;-77
2021/03/04 12:58:51;;;;;;;8.63;5.80;;;18.50;12.70;;;;;;5103862;28;20817;-77